Current | Forecast
Updated: 4:30 PM MSK on June 25, 2017
Observed at Rostov Na-Donu, Russia
Temperature 25°C
Humidity 47%
Dew Point 13°C
Wind SW at 18 km/h
Pressure 1014 hPa (Steady)
Conditions Unknown
Visibility 10.0 kilometers
UV N/A
Clouds
Yesterday's Maximum 25°C
Yesterday's Minimum 18°C approx.
Yesterday's Cooling Degree Days 6 approx.
Sunrise4:26 AM MSK
Sunset8:25 PM MSK
Moon Rise5:58 AM MSK
Moon Set9:27 PM MSK
Moon PhaseMoon Phase
Waxing Crescent
Raw METARMETAR URRR 251330Z 23005MPS 190V260 9999 FEW///CB 25/13 Q1014 R22/CLRD70 TEMPO -TSRA RMK QFE753/1004


Monday
. High: 64° F.
Tuesday
. High: 59° F.
Wednesday
. High: 59° F.
Thursday
. High: 57° F.
Friday
. High: 62° F.
Saturday
. High: 62° F.
Sunday
. High: 66° F.
Monday
. High: 68° F.

Units: English | Metric

Find the Weather for any City, State or Zipcode, or Country:

U.S. State List | Severe Weather | Tropical Storms | Ski Conditions
United States | Canada | Central America | South America | Asia | Europe | Australia | Africa | Islands

Weather Underground

© Copyright 2017
The Weather Company, LLC